Time;durP1;ratioP1;P1;durP2;ratioP2;P2;SDS_P1;SDS_P2;PMS_P1;PMS_P2;Temp;Humidity;BMP_temperature;BMP_pressure;BME280_temperature;BME280_humidity;BME280_pressure;Samples;Min_cycle;Max_cycle;Signal;HPM_P1;HPM_P2
2023/12/07 00:00:13;;;;;;;18.73;15.87;;;;;;;-1.12;100.00;101757.59;5055470;28;20082;-59
2023/12/07 00:02:38;;;;;;;17.87;15.97;;;;;;;-1.14;100.00;101754.00;5043537;28;20109;-60
2023/12/07 00:05:04;;;;;;;18.40;15.50;;;;;;;-1.16;100.00;101760.59;5058782;28;20107;-58
2023/12/07 00:07:29;;;;;;;19.40;15.13;;;;;;;-1.19;100.00;101758.66;5049756;28;20048;-59
2023/12/07 00:09:54;;;;;;;16.67;14.93;;;;;;;-1.22;100.00;101764.34;5044979;28;20095;-61
2023/12/07 00:12:20;;;;;;;17.10;14.47;;;;;;;-1.23;100.00;101752.41;5035535;28;20072;-60
2023/12/07 00:14:46;;;;;;;18.03;15.53;;;;;;;-1.22;100.00;101749.09;5050333;28;20021;-59
2023/12/07 00:17:11;;;;;;;16.97;14.47;;;;;;;-1.24;100.00;101750.59;5041313;28;20112;-60
2023/12/07 00:19:36;;;;;;;18.17;16.17;;;;;;;-1.28;100.00;101747.63;5049598;28;20028;-60
2023/12/07 00:22:01;;;;;;;18.27;15.73;;;;;;;-1.30;100.00;101744.94;5049851;28;20104;-60
2023/12/07 00:24:27;;;;;;;17.50;15.60;;;;;;;-1.33;100.00;101742.97;5050333;28;20009;-59
2023/12/07 00:26:52;;;;;;;19.50;15.97;;;;;;;-1.36;100.00;101741.78;5058476;28;20469;-59
2023/12/07 00:29:17;;;;;;;18.43;16.43;;;;;;;-1.39;100.00;101744.06;5050318;28;20249;-60
2023/12/07 00:31:43;;;;;;;18.20;15.60;;;;;;;-1.39;100.00;101739.88;5058543;28;20081;-60
2023/12/07 00:34:09;;;;;;;19.20;17.07;;;;;;;-1.41;100.00;101746.47;5047530;28;20029;-60
2023/12/07 00:36:35;;;;;;;18.47;16.00;;;;;;;-1.46;100.00;101748.53;5031411;28;20439;-59
2023/12/07 00:39:00;;;;;;;20.40;16.53;;;;;;;-1.49;100.00;101753.34;5039667;28;20039;-60
2023/12/07 00:41:25;;;;;;;18.63;16.80;;;;;;;-1.51;100.00;101748.88;5056304;28;20021;-59
2023/12/07 00:43:51;;;;;;;20.90;16.07;;;;;;;-1.53;100.00;101751.25;5051838;28;20016;-59
2023/12/07 00:46:16;;;;;;;20.10;16.60;;;;;;;-1.55;100.00;101757.84;5056641;28;20045;-59
2023/12/07 00:48:42;;;;;;;20.33;17.13;;;;;;;-1.56;100.00;101756.03;5045713;28;20053;-59
2023/12/07 00:51:08;;;;;;;21.67;18.27;;;;;;;-1.54;100.00;101748.56;5050964;28;20399;-61
2023/12/07 00:53:33;;;;;;;20.50;17.97;;;;;;;-1.53;100.00;101745.28;5039205;28;20063;-60
2023/12/07 00:55:58;;;;;;;20.87;18.63;;;;;;;-1.52;100.00;101740.34;5061640;28;20035;-60
2023/12/07 00:58:24;;;;;;;21.67;18.07;;;;;;;-1.50;100.00;101756.66;5029359;28;20056;-59
2023/12/07 01:00:49;;;;;;;22.63;18.63;;;;;;;-1.53;100.00;101741.06;5029264;28;20040;-60
2023/12/07 01:03:14;;;;;;;23.10;19.87;;;;;;;-1.52;100.00;101742.88;5029051;28;20025;-61
2023/12/07 01:05:39;;;;;;;22.03;18.33;;;;;;;-1.53;100.00;101756.31;5049281;28;20032;-60
2023/12/07 01:08:05;;;;;;;22.60;19.33;;;;;;;-1.55;100.00;101752.78;5047570;28;20025;-59
2023/12/07 01:10:31;;;;;;;22.00;19.33;;;;;;;-1.56;100.00;101756.03;5046799;28;20052;-59
2023/12/07 01:12:57;;;;;;;23.50;20.60;;;;;;;-1.58;100.00;101755.91;5048553;28;20103;-60
2023/12/07 01:15:22;;;;;;;22.83;19.00;;;;;;;-1.59;100.00;101760.84;5039883;28;20112;-59
2023/12/07 01:17:47;;;;;;;22.10;18.17;;;;;;;-1.60;100.00;101754.84;5046397;28;20017;-59
2023/12/07 01:20:13;;;;;;;22.33;19.93;;;;;;;-1.63;100.00;101754.56;5048833;28;20040;-59
2023/12/07 01:22:42;;;;;;;24.80;19.60;;;;;;;-1.62;100.00;101760.56;5047490;28;20021;-60
2023/12/07 01:25:07;;;;;;;22.87;19.33;;;;;;;-1.63;100.00;101768.91;5045499;28;20521;-60
2023/12/07 01:27:33;;;;;;;24.07;19.77;;;;;;;-1.64;100.00;101765.50;5053328;28;20039;-60
2023/12/07 01:29:58;;;;;;;23.47;19.27;;;;;;;-1.64;100.00;101768.03;5052337;28;20032;-60
2023/12/07 01:32:24;;;;;;;22.70;19.33;;;;;;;-1.63;100.00;101774.00;5040721;28;20105;-59
2023/12/07 01:34:49;;;;;;;25.30;19.43;;;;;;;-1.65;100.00;101766.22;5047817;28;20032;-60
2023/12/07 01:37:14;;;;;;;23.83;20.27;;;;;;;-1.64;100.00;101769.66;5047793;28;20470;-60
2023/12/07 01:39:41;;;;;;;23.80;19.07;;;;;;;-1.65;100.00;101765.31;5047919;28;20025;-60
2023/12/07 01:42:08;;;;;;;22.93;19.40;;;;;;;-1.65;100.00;101755.16;5048178;28;20039;-61
2023/12/07 01:44:33;;;;;;;22.47;19.90;;;;;;;-1.66;100.00;101766.09;5048872;28;20032;-60
2023/12/07 01:46:58;;;;;;;23.63;20.57;;;;;;;-1.66;100.00;101767.00;5047674;28;20053;-59
2023/12/07 01:49:24;;;;;;;21.17;18.97;;;;;;;-1.70;100.00;101768.34;5047607;28;20048;-61
2023/12/07 01:51:49;;;;;;;21.17;18.13;;;;;;;-1.70;100.00;101768.34;5066361;28;20032;-59
2023/12/07 01:54:14;;;;;;;23.47;19.13;;;;;;;-1.70;100.00;101775.06;5054379;28;20178;-60
2023/12/07 01:56:40;;;;;;;23.60;19.57;;;;;;;-1.71;100.00;101774.16;5053333;28;20337;-59
2023/12/07 01:59:06;;;;;;;22.53;19.13;;;;;;;-1.72;100.00;101763.84;5043251;28;20472;-59
2023/12/07 02:01:31;;;;;;;20.73;18.43;;;;;;;-1.73;100.00;101772.22;5040134;28;20029;-59
2023/12/07 02:03:56;;;;;;;22.90;19.50;;;;;;;-1.74;100.00;101761.16;5040593;28;20025;-60
2023/12/07 02:06:22;;;;;;;23.77;19.47;;;;;;;-1.73;100.00;101762.06;5047448;28;20029;-60
2023/12/07 02:08:47;;;;;;;23.80;19.23;;;;;;;-1.76;100.00;101757.56;5048012;28;20021;-59
2023/12/07 02:11:13;;;;;;;22.70;19.43;;;;;;;-1.75;100.00;101758.47;5034492;28;20021;-59
2023/12/07 02:13:40;;;;;;;23.67;19.63;;;;;;;-1.75;100.00;101764.47;5047241;28;20025;-60
2023/12/07 02:16:14;;;;;;;22.83;19.43;;;;;;;-1.74;100.00;101767.88;5032696;28;20028;-60
2023/12/07 02:18:51;;;;;;;24.17;17.87;;;;;;;-1.76;100.00;101772.81;5048290;28;20024;-60
2023/12/07 02:21:25;;;;;;;32.27;20.30;;;;;;;-1.74;100.00;101768.78;5054096;28;20449;-59
2023/12/07 02:23:53;;;;;;;22.83;20.37;;;;;;;-1.72;100.00;101768.91;5046667;28;20056;-60
2023/12/07 02:26:20;;;;;;;26.50;21.13;;;;;;;-1.70;100.00;101778.50;5028171;28;20045;-60
2023/12/07 02:28:45;;;;;;;28.77;22.30;;;;;;;-1.63;100.00;101779.09;5039491;28;20497;-59
2023/12/07 02:31:11;;;;;;;28.93;22.67;;;;;;;-1.58;100.00;101785.50;5047151;28;20052;-59
2023/12/07 02:33:36;;;;;;;28.37;20.90;;;;;;;-1.55;100.00;101778.19;5033262;28;20031;-59
2023/12/07 02:36:01;;;;;;;27.27;20.90;;;;;;;-1.50;100.00;101783.72;5046628;28;20187;-60
2023/12/07 02:38:28;;;;;;;28.33;21.70;;;;;;;-1.47;100.00;101787.44;5034367;28;20025;-59
2023/12/07 02:40:55;;;;;;;33.87;24.17;;;;;;;-1.44;100.00;101784.31;5041011;28;20559;-59
2023/12/07 02:43:21;;;;;;;28.83;21.67;;;;;;;-1.41;100.00;101786.25;5038803;28;20025;-59
2023/12/07 02:45:47;;;;;;;53.37;22.70;;;;;;;-1.40;100.00;101777.88;5034481;28;20037;-60
2023/12/07 02:48:13;;;;;;;29.50;21.57;;;;;;;-1.40;100.00;101766.03;5046997;28;20116;-61
2023/12/07 02:50:38;;;;;;;32.27;22.53;;;;;;;-1.40;100.00;101777.88;5041842;28;20104;-60
2023/12/07 02:53:03;;;;;;;27.43;23.13;;;;;;;-1.40;100.00;101782.97;5052785;28;20056;-60
2023/12/07 02:55:29;;;;;;;34.60;22.87;;;;;;;-1.43;100.00;101778.47;5048163;28;20021;-59
2023/12/07 02:57:54;;;;;;;51.23;22.40;;;;;;;-1.39;100.00;101774.56;5046686;28;20061;-60
2023/12/07 03:00:21;;;;;;;26.23;20.50;;;;;;;-1.40;100.00;101767.72;5049052;28;20032;-60
2023/12/07 03:02:47;;;;;;;53.80;23.27;;;;;;;-1.42;100.00;101766.66;5044300;28;20040;-60
2023/12/07 03:05:13;;;;;;;27.03;21.20;;;;;;;-1.47;100.00;101772.19;5049515;28;20120;-60
2023/12/07 03:07:38;;;;;;;39.60;22.20;;;;;;;-1.52;100.00;101770.84;5043894;28;20518;-60
2023/12/07 03:10:04;;;;;;;72.43;23.97;;;;;;;-1.56;100.00;101771.28;5049985;28;20471;-59
2023/12/07 03:12:29;;;;;;;68.10;22.63;;;;;;;-1.62;100.00;101778.34;5049957;28;20113;-60
2023/12/07 03:14:54;;;;;;;44.53;21.33;;;;;;;-1.59;100.00;101781.19;5036419;28;20033;-60
2023/12/07 03:17:20;;;;;;;43.87;21.67;;;;;;;-1.66;100.00;101784.78;5030088;28;20021;-59
2023/12/07 03:19:45;;;;;;;28.90;21.10;;;;;;;-1.67;100.00;101784.63;5055770;28;20052;-60
2023/12/07 03:22:10;;;;;;;30.40;22.67;;;;;;;-1.65;100.00;101781.47;5046923;28;20074;-59
2023/12/07 03:24:37;;;;;;;65.60;23.73;;;;;;;-1.63;100.00;101784.16;5055019;28;20404;-60
2023/12/07 03:27:02;;;;;;;27.37;21.83;;;;;;;-1.61;100.00;101782.69;5035395;28;20468;-60
2023/12/07 03:29:27;;;;;;;27.40;22.53;;;;;;;-1.60;100.00;101784.50;5041256;28;20024;-60
2023/12/07 03:31:53;;;;;;;39.87;22.47;;;;;;;-1.57;100.00;101782.22;5061483;28;20240;-60
2023/12/07 03:34:18;;;;;;;31.87;23.13;;;;;;;-1.56;100.00;101781.47;5050748;28;20013;-60
2023/12/07 03:36:47;;;;;;;33.20;22.17;;;;;;;-1.54;100.00;101781.63;5052173;28;20025;-59
2023/12/07 03:39:18;;;;;;;46.43;23.87;;;;;;;-1.58;100.00;101778.78;5049190;28;20381;-59
2023/12/07 03:41:43;;;;;;;27.70;22.08;;;;;;;-1.56;100.00;101786.56;5050203;28;20087;-60
2023/12/07 03:44:09;;;;;;;32.10;23.30;;;;;;;-1.54;100.00;101790.16;5049906;28;20469;-59
2023/12/07 03:46:34;;;;;;;32.63;22.07;;;;;;;-1.54;100.00;101785.06;5046359;28;20037;-59
2023/12/07 03:48:59;;;;;;;53.97;25.23;;;;;;;-1.57;100.00;101789.84;5047605;28;20076;-59
2023/12/07 03:51:26;;;;;;;33.53;24.17;;;;;;;-1.54;100.00;101791.78;5049789;28;20393;-60
2023/12/07 03:53:51;;;;;;;40.40;23.60;;;;;;;-1.54;100.00;101802.84;5048144;28;20104;-59
2023/12/07 03:56:28;;;;;;;68.90;26.33;;;;;;;-1.54;100.00;101804.50;5050080;28;20112;-60
2023/12/07 03:58:54;;;;;;;74.87;25.50;;;;;;;-1.58;100.00;101811.84;5049218;28;20099;-60
2023/12/07 04:01:23;;;;;;;34.43;24.93;;;;;;;-1.55;100.00;101807.81;5049643;28;20505;-59
2023/12/07 04:03:49;;;;;;;34.70;25.33;;;;;;;-1.53;100.00;101811.41;5050651;28;20037;-60
2023/12/07 04:06:14;;;;;;;42.73;25.97;;;;;;;-1.51;100.00;101809.91;5048288;28;20020;-59
2023/12/07 04:08:40;;;;;;;53.07;27.57;;;;;;;-1.62;100.00;101811.41;5051142;28;20485;-59
2023/12/07 04:11:05;;;;;;;43.20;26.27;;;;;;;-1.58;100.00;101805.84;5049480;28;20021;-59
2023/12/07 04:13:30;;;;;;;58.10;27.77;;;;;;;-1.56;100.00;101811.97;5050044;28;20136;-60
2023/12/07 04:15:55;;;;;;;38.70;24.77;;;;;;;-1.61;100.00;101803.00;5048032;28;20075;-59
2023/12/07 04:18:21;;;;;;;39.77;26.60;;;;;;;-1.59;100.00;101806.59;5049335;28;20025;-59
2023/12/07 04:20:46;;;;;;;40.27;27.27;;;;;;;-1.58;100.00;101809.28;5048376;28;20021;-60
2023/12/07 04:23:11;;;;;;;68.03;29.33;;;;;;;-1.58;100.00;101798.22;5057612;28;20032;-60
2023/12/07 04:25:36;;;;;;;58.03;28.57;;;;;;;-1.56;100.00;101814.53;5041465;28;20016;-59
2023/12/07 04:28:02;;;;;;;43.80;26.97;;;;;;;-1.57;100.00;101820.38;5040700;28;20013;-59
2023/12/07 04:30:27;;;;;;;58.80;28.53;;;;;;;-1.57;100.00;101821.28;5038076;28;20036;-59
2023/12/07 04:32:52;;;;;;;43.67;27.50;;;;;;;-1.56;100.00;101817.06;5058434;28;20302;-60
2023/12/07 04:35:18;;;;;;;82.17;27.57;;;;;;;-1.58;100.00;101821.09;5059352;28;20538;-59
2023/12/07 04:37:43;;;;;;;52.00;27.17;;;;;;;-1.54;100.00;101824.84;5048950;28;20119;-59
2023/12/07 04:40:10;;;;;;;49.23;25.20;;;;;;;-1.52;100.00;101820.81;5059047;28;20651;-60
2023/12/07 04:42:35;;;;;;;62.23;26.83;;;;;;;-1.61;100.00;101823.34;5031325;28;20376;-59
2023/12/07 04:45:01;;;;;;;44.93;23.80;;;;;;;-1.59;100.00;101824.41;5044799;28;20017;-59
2023/12/07 04:47:27;;;;;;;39.67;22.07;;;;;;;-1.59;100.00;101819.31;5052445;28;20054;-60
2023/12/07 04:49:52;;;;;;;45.83;21.27;;;;;;;-1.63;100.00;101824.84;5040949;28;20039;-60
2023/12/07 04:52:19;;;;;;;35.90;21.67;;;;;;;-1.57;100.00;101815.28;5030232;28;20378;-59
2023/12/07 04:54:44;;;;;;;34.13;20.90;;;;;;;-1.54;100.00;101814.66;5047843;28;20017;-60
2023/12/07 04:57:09;;;;;;;31.73;21.00;;;;;;;-1.50;100.00;101811.69;5068187;28;20028;-59
2023/12/07 04:59:35;;;;;;;33.13;20.17;;;;;;;-1.50;100.00;101814.22;5068042;28;20021;-60
2023/12/07 05:02:00;;;;;;;30.30;18.33;;;;;;;-1.51;100.00;101810.78;5058736;28;20064;-59
2023/12/07 05:04:25;;;;;;;42.23;19.97;;;;;;;-1.47;100.00;101812.88;5058682;28;20377;-60
2023/12/07 05:06:51;;;;;;;29.77;18.10;;;;;;;-1.52;100.00;101801.38;5039137;28;20158;-60
2023/12/07 05:09:16;;;;;;;32.97;17.97;;;;;;;-1.50;100.00;101802.41;5048920;28;20488;-60
2023/12/07 05:11:41;;;;;;;27.53;17.13;;;;;;;-1.45;100.00;101801.22;5049221;28;20396;-60
2023/12/07 05:14:07;;;;;;;44.40;17.33;;;;;;;-1.58;100.00;101795.69;5045929;28;20024;-59
2023/12/07 05:16:32;;;;;;;25.87;16.13;;;;;;;-1.57;100.00;101790.75;5038523;28;20025;-59
2023/12/07 05:18:57;;;;;;;28.57;17.00;;;;;;;-1.61;100.00;101792.84;5047195;28;20029;-60
2023/12/07 05:21:23;;;;;;;32.83;16.37;;;;;;;-1.61;100.00;101790.31;5040067;28;20029;-60
2023/12/07 05:23:48;;;;;;;27.50;15.90;;;;;;;-1.60;100.00;101784.50;5047736;28;20350;-60
2023/12/07 05:26:13;;;;;;;28.80;17.37;;;;;;;-1.58;100.00;101793.13;5048274;28;20108;-59
2023/12/07 05:28:39;;;;;;;26.80;15.47;;;;;;;-1.54;100.00;101790.16;5048026;28;20025;-59
2023/12/07 05:31:05;;;;;;;27.47;16.43;;;;;;;-1.51;100.00;101787.00;5048736;28;20023;-59
2023/12/07 05:33:32;;;;;;;25.77;15.27;;;;;;;-1.46;100.00;101788.34;5047784;28;20029;-60
2023/12/07 05:35:59;;;;;;;25.67;15.50;;;;;;;-1.42;100.00;101789.53;5048543;28;20031;-59
2023/12/07 05:38:25;;;;;;;23.80;13.90;;;;;;;-1.41;100.00;101797.31;5047764;28;20024;-59
2023/12/07 05:40:50;;;;;;;27.77;15.80;;;;;;;-1.38;100.00;101792.53;5048880;28;20369;-60
2023/12/07 05:43:16;;;;;;;30.17;15.77;;;;;;;-1.39;100.00;101780.56;5036470;28;20048;-59
2023/12/07 05:45:41;;;;;;;31.43;15.77;;;;;;;-1.40;100.00;101775.34;5048024;28;20037;-60
2023/12/07 05:48:06;;;;;;;30.07;16.87;;;;;;;-1.42;100.00;101780.25;5058147;28;20036;-60
2023/12/07 05:50:31;;;;;;;30.83;16.47;;;;;;;-1.40;100.00;101772.78;5041988;28;20032;-60
2023/12/07 05:52:57;;;;;;;27.37;14.80;;;;;;;-1.39;100.00;101772.03;5063616;28;20024;-60
2023/12/07 05:55:22;;;;;;;27.67;16.30;;;;;;;-1.38;100.00;101781.44;5047750;28;20033;-59
2023/12/07 05:57:47;;;;;;;32.90;17.50;;;;;;;-1.37;100.00;101778.16;5034585;28;20030;-59
2023/12/07 06:00:13;;;;;;;28.83;16.20;;;;;;;-1.36;100.00;101785.94;5047195;28;20017;-59
2023/12/07 06:02:38;;;;;;;30.83;16.37;;;;;;;-1.37;100.00;101784.13;5047670;28;20437;-60
2023/12/07 06:05:04;;;;;;;31.37;16.47;;;;;;;-1.34;100.00;101769.19;5047254;28;20417;-59
2023/12/07 06:07:30;;;;;;;30.03;15.20;;;;;;;-1.32;100.00;101771.88;5047472;28;20075;-60
2023/12/07 06:09:56;;;;;;;29.70;15.37;;;;;;;-1.30;100.00;101770.38;5047196;28;20024;-59
2023/12/07 06:12:21;;;;;;;29.13;14.17;;;;;;;-1.32;100.00;101769.31;5045453;28;20060;-60
2023/12/07 06:14:47;;;;;;;26.90;14.57;;;;;;;-1.33;100.00;101775.13;5046937;28;20056;-60
2023/12/07 06:17:13;;;;;;;34.77;15.20;;;;;;;-1.29;100.00;101776.31;5046768;28;20062;-59
2023/12/07 06:19:38;;;;;;;25.50;14.10;;;;;;;-1.30;100.00;101780.53;5047798;28;20029;-60
2023/12/07 06:22:03;;;;;;;33.87;15.40;;;;;;;-1.30;100.00;101772.91;5054206;28;20032;-60
2023/12/07 06:24:29;;;;;;;30.50;15.47;;;;;;;-1.33;100.00;101777.69;5055530;28;20028;-59
2023/12/07 06:26:54;;;;;;;31.60;15.43;;;;;;;-1.31;100.00;101785.50;5047820;28;20116;-59
2023/12/07 06:29:20;;;;;;;33.60;14.67;;;;;;;-1.34;100.00;101784.44;5048353;28;20067;-59
2023/12/07 06:31:45;;;;;;;33.70;14.13;;;;;;;-1.34;100.00;101776.81;5046582;28;20849;-59
2023/12/07 06:34:11;;;;;;;30.87;15.27;;;;;;;-1.33;100.00;101786.22;5045742;28;20490;-59
2023/12/07 06:36:36;;;;;;;35.77;14.67;;;;;;;-1.33;100.00;101788.75;5053978;28;20033;-59
2023/12/07 06:39:03;;;;;;;28.50;13.73;;;;;;;-1.33;100.00;101785.31;5054934;28;20031;-60
2023/12/07 06:41:28;;;;;;;35.13;14.50;;;;;;;-1.31;100.00;101781.28;5040104;28;20488;-59
2023/12/07 06:43:54;;;;;;;26.03;13.30;;;;;;;-1.27;100.00;101765.56;5045150;28;20017;-60
2023/12/07 06:46:19;;;;;;;33.07;14.07;;;;;;;-1.29;100.00;101767.06;5037798;28;20057;-60
2023/12/07 06:48:45;;;;;;;30.63;13.67;;;;;;;-1.28;100.00;101766.34;5043597;28;20055;-59
2023/12/07 06:51:10;;;;;;;22.87;12.87;;;;;;;-1.26;100.00;101769.88;5039215;28;20439;-60
2023/12/07 06:53:35;;;;;;;28.83;15.30;;;;;;;-1.25;100.00;101764.06;5050636;28;20029;-59
2023/12/07 06:56:01;;;;;;;36.30;15.73;;;;;;;-1.32;100.00;101756.59;5038581;28;20473;-60
2023/12/07 06:58:26;;;;;;;25.13;13.57;;;;;;;-1.30;100.00;101752.56;5046238;28;20127;-60
2023/12/07 07:00:51;;;;;;;28.67;14.97;;;;;;;-1.29;100.00;101750.91;5043317;28;20032;-60
2023/12/07 07:03:17;;;;;;;29.07;14.53;;;;;;;-1.24;100.00;101749.72;5047369;28;20532;-61
2023/12/07 07:05:42;;;;;;;37.00;15.43;;;;;;;-1.27;100.00;101747.75;5047927;28;20039;-59
2023/12/07 07:08:08;;;;;;;41.70;15.27;;;;;;;-1.26;100.00;101761.38;5062960;28;20736;-59
2023/12/07 07:10:34;;;;;;;33.23;15.37;;;;;;;-1.27;100.00;101755.38;5056510;28;20142;-58
2023/12/07 07:13:02;;;;;;;36.33;16.60;;;;;;;-1.26;100.00;101757.16;5050123;28;20102;-59
2023/12/07 07:15:28;;;;;;;30.53;15.43;;;;;;;-1.23;100.00;101752.41;5043728;28;20478;-59
2023/12/07 07:17:53;;;;;;;42.00;16.43;;;;;;;-1.23;100.00;101757.50;5044418;28;20043;-58
2023/12/07 07:20:18;;;;;;;40.23;15.77;;;;;;;-1.22;100.00;101756.72;5054415;28;20090;-59
2023/12/07 07:22:45;;;;;;;27.77;14.93;;;;;;;-1.16;100.00;101758.03;5046900;28;20037;-59
2023/12/07 07:25:10;;;;;;;28.57;14.83;;;;;;;-1.11;100.00;101772.09;5040800;28;20100;-59
2023/12/07 07:27:35;;;;;;;26.60;14.17;;;;;;;-1.10;100.00;101773.91;5047061;28;20115;-60
2023/12/07 07:30:04;;;;;;;34.70;15.83;;;;;;;-1.11;100.00;101783.19;5036131;28;20025;-61
2023/12/07 07:32:29;;;;;;;29.90;15.67;;;;;;;-1.12;100.00;101780.50;5046880;28;20434;-61
2023/12/07 07:34:54;;;;;;;26.57;16.40;;;;;;;-1.07;100.00;101788.56;5052531;28;20156;-60
2023/12/07 07:37:19;;;;;;;29.07;15.87;;;;;;;-1.07;100.00;101776.72;5052727;28;20383;-61
2023/12/07 07:39:45;;;;;;;31.43;16.00;;;;;;;-1.06;100.00;101788.69;5052948;28;20025;-60
2023/12/07 07:42:10;;;;;;;34.50;16.97;;;;;;;-1.10;100.00;101784.97;5047338;28;20044;-60
2023/12/07 07:44:36;;;;;;;31.07;16.37;;;;;;;-1.12;100.00;101781.41;5049684;28;20052;-60
2023/12/07 07:47:01;;;;;;;35.40;18.03;;;;;;;-1.11;100.00;101767.00;5053200;28;20070;-60
2023/12/07 07:49:26;;;;;;;31.93;17.93;;;;;;;-1.09;100.00;101781.69;5048921;28;20060;-59
2023/12/07 07:51:52;;;;;;;33.60;18.80;;;;;;;-1.03;100.00;101770.28;5047116;28;20035;-60
2023/12/07 07:54:18;;;;;;;32.00;17.30;;;;;;;-1.01;100.00;101774.75;5047704;28;20029;-60
2023/12/07 07:56:43;;;;;;;35.33;18.50;;;;;;;-1.00;100.00;101775.66;5046692;28;20021;-60
2023/12/07 07:59:09;;;;;;;36.37;18.33;;;;;;;-0.98;100.00;101777.59;5049647;28;20064;-60
2023/12/07 08:01:34;;;;;;;37.73;19.43;;;;;;;-0.97;100.00;101776.84;5053502;28;20025;-60
2023/12/07 08:03:59;;;;;;;41.07;20.53;;;;;;;-0.95;100.00;101773.56;5044853;28;20032;-60
2023/12/07 08:06:25;;;;;;;39.47;19.17;;;;;;;-0.92;100.00;101778.94;5051047;28;20059;-60
2023/12/07 08:08:50;;;;;;;41.87;20.30;;;;;;;-0.93;100.00;101778.03;5055575;28;20025;-60
2023/12/07 08:11:16;;;;;;;36.93;18.97;;;;;;;-0.89;100.00;101775.03;5053654;28;20387;-60
2023/12/07 08:13:41;;;;;;;41.43;21.00;;;;;;;-0.88;100.00;101763.22;5052212;28;20032;-59
2023/12/07 08:16:09;;;;;;;40.87;19.93;;;;;;;-0.86;100.00;101761.66;5049243;28;20469;-59
2023/12/07 08:18:34;;;;;;;40.17;21.40;;;;;;;-0.81;100.00;101762.13;5049070;28;20053;-61
2023/12/07 08:20:59;;;;;;;43.50;22.03;;;;;;;-0.81;100.00;101764.66;5049155;28;20055;-60
2023/12/07 08:23:24;;;;;;;44.63;22.37;;;;;;;-0.77;100.00;101767.63;5054996;28;20035;-59
2023/12/07 08:25:50;;;;;;;42.23;22.10;;;;;;;-0.75;100.00;101775.41;5042684;28;20020;-60
2023/12/07 08:28:15;;;;;;;41.77;21.90;;;;;;;-0.73;100.00;101776.44;5048866;28;20067;-60
2023/12/07 08:30:40;;;;;;;46.13;21.93;;;;;;;-0.73;100.00;101776.44;5037167;28;20048;-60
2023/12/07 08:33:06;;;;;;;54.53;23.53;;;;;;;-0.73;100.00;101763.72;5048564;28;20507;-60
2023/12/07 08:35:31;;;;;;;44.17;21.77;;;;;;;-0.75;100.00;101773.75;5047929;28;20070;-60
2023/12/07 08:37:56;;;;;;;45.20;22.30;;;;;;;-0.75;100.00;101763.59;5048757;28;20044;-60
2023/12/07 08:40:21;;;;;;;47.00;22.33;;;;;;;-0.68;100.00;101766.69;5047060;28;20063;-60
2023/12/07 08:42:48;;;;;;;45.10;23.03;;;;;;;-0.64;100.00;101776.41;5041400;28;20029;-60
2023/12/07 08:45:13;;;;;;;48.23;23.57;;;;;;;-0.61;100.00;101769.94;5047399;28;20020;-59
2023/12/07 08:47:39;;;;;;;45.90;22.40;;;;;;;-0.61;100.00;101767.41;5048298;28;20396;-61
2023/12/07 08:50:05;;;;;;;49.50;22.90;;;;;;;-0.60;100.00;101768.31;5050284;28;20021;-59
2023/12/07 08:52:30;;;;;;;45.43;23.33;;;;;;;-0.56;100.00;101767.84;5045484;28;20032;-58
2023/12/07 08:54:55;;;;;;;46.90;23.00;;;;;;;-0.56;100.00;101769.47;5043086;28;20106;-61
2023/12/07 08:57:21;;;;;;;55.17;24.70;;;;;;;-0.55;100.00;101779.81;5045713;28;20504;-60
2023/12/07 08:59:46;;;;;;;45.43;22.37;;;;;;;-0.54;100.00;101786.69;5043322;28;20043;-60
2023/12/07 09:02:11;;;;;;;44.23;21.97;;;;;;;-0.45;100.00;101784.09;5048890;28;20127;-61
2023/12/07 09:04:38;;;;;;;43.80;21.27;;;;;;;-0.36;100.00;101778.97;5048589;28;20408;-61
2023/12/07 09:07:04;;;;;;;44.83;22.00;;;;;;;-0.32;100.00;101775.03;5046131;28;20103;-60
2023/12/07 09:09:29;;;;;;;43.87;22.37;;;;;;;-0.37;100.00;101772.06;5046417;28;20052;-61
2023/12/07 09:11:54;;;;;;;41.17;21.33;;;;;;;-0.33;100.00;101761.41;5046485;28;20025;-61
2023/12/07 09:14:19;;;;;;;51.23;22.90;;;;;;;-0.33;100.00;101756.31;5048271;28;20039;-60
2023/12/07 09:16:45;;;;;;;45.97;21.97;;;;;;;-0.35;100.00;101754.38;5050080;28;20036;-60
2023/12/07 09:19:12;;;;;;;43.60;21.17;;;;;;;-0.28;100.00;101760.16;5048706;28;20025;-60
2023/12/07 09:21:38;;;;;;;48.10;23.33;;;;;;;-0.29;100.00;101765.13;5048965;28;20099;-60
2023/12/07 09:24:05;;;;;;;44.63;21.03;;;;;;;-0.29;100.00;101758.34;5045556;28;20483;-60
2023/12/07 09:26:30;;;;;;;45.93;21.87;;;;;;;-0.29;100.00;101758.34;5036678;28;20025;-59
2023/12/07 09:28:56;;;;;;;45.23;22.33;;;;;;;-0.30;100.00;101756.59;5048347;28;20039;-60
2023/12/07 09:31:21;;;;;;;46.40;22.50;;;;;;;-0.22;100.00;101753.84;5048191;28;20122;-60
2023/12/07 09:33:47;;;;;;;45.20;22.47;;;;;;;-0.26;100.00;101750.13;5047563;28;20044;-61
2023/12/07 09:36:18;;;;;;;50.67;24.50;;;;;;;-0.26;100.00;101751.03;5057971;28;20033;-61
2023/12/07 09:38:43;;;;;;;48.90;24.73;;;;;;;-0.25;100.00;101752.78;5063381;28;20052;-60
2023/12/07 09:41:08;;;;;;;53.33;23.50;;;;;;;-0.25;100.00;101742.59;5058723;28;20586;-61
2023/12/07 09:43:34;;;;;;;46.83;24.10;;;;;;;-0.23;100.00;101744.41;5053805;28;20020;-59
2023/12/07 09:46:00;;;;;;;51.43;24.37;;;;;;;-0.23;100.00;101747.84;5067183;28;20133;-61
2023/12/07 09:48:26;;;;;;;47.77;23.13;;;;;;;-0.18;100.00;101744.06;5053943;28;20031;-60
2023/12/07 09:50:55;;;;;;;48.33;22.63;;;;;;;-0.13;100.00;101742.81;5066836;28;20376;-60
2023/12/07 09:53:20;;;;;;;44.77;22.97;;;;;;;-0.08;100.00;101735.59;5050361;28;20041;-60
2023/12/07 09:55:46;;;;;;;48.17;23.00;;;;;;;-0.05;100.00;101733.31;5047756;28;20028;-60
2023/12/07 09:58:12;;;;;;;45.20;22.87;;;;;;;-0.02;100.00;101725.94;5047312;28;20017;-60
2023/12/07 10:00:37;;;;;;;48.50;24.23;;;;;;;0.01;100.00;101724.41;5048010;28;20079;-61
2023/12/07 10:03:04;;;;;;;45.20;23.30;;;;;;;0.03;100.00;101713.63;5047150;28;20067;-60
2023/12/07 10:05:29;;;;;;;46.53;23.50;;;;;;;0.10;100.00;101715.06;5048150;28;20024;-60
2023/12/07 10:07:54;;;;;;;41.67;22.87;;;;;;;0.08;100.00;101698.72;5047553;28;20021;-61
2023/12/07 10:10:20;;;;;;;44.13;23.33;;;;;;;0.11;100.00;101691.34;5047119;28;20087;-61
2023/12/07 10:12:48;;;;;;;44.37;22.97;;;;;;;0.16;100.00;101684.09;5047376;28;20071;-60
2023/12/07 10:15:15;;;;;;;41.90;22.83;;;;;;;0.26;100.00;101691.81;5047234;28;20029;-60
2023/12/07 10:17:58;;;;;;;40.93;22.30;;;;;;;0.30;100.00;101687.88;5059728;28;20412;-61
2023/12/07 10:20:25;;;;;;;40.20;22.23;;;;;;;0.36;100.00;101675.63;5060520;28;20025;-60
2023/12/07 10:23:04;;;;;;;37.57;21.70;;;;;;;0.44;100.00;101672.13;5053654;28;20151;-61
2023/12/07 10:25:31;;;;;;;42.20;21.27;;;;;;;0.38;100.00;101666.47;5052223;28;20034;-61
2023/12/07 10:27:56;;;;;;;37.13;22.30;;;;;;;0.40;100.00;101664.94;5053501;28;20468;-61
2023/12/07 10:30:25;;;;;;;36.03;21.20;;;;;;;0.44;100.00;101664.47;5040810;28;20314;-60
2023/12/07 10:32:51;;;;;;;41.27;22.47;;;;;;;0.49;100.00;101658.88;5054422;28;20021;-59
2023/12/07 10:35:18;;;;;;;40.67;23.50;;;;;;;0.53;100.00;101655.81;5063826;28;20036;-60
2023/12/07 10:37:44;;;;;;;41.13;22.87;;;;;;;0.56;100.00;101645.84;5065578;28;20320;-60
2023/12/07 10:40:10;;;;;;;40.57;23.47;;;;;;;0.64;100.00;101646.53;5051596;28;20071;-60
2023/12/07 10:42:37;;;;;;;40.37;22.73;;;;;;;0.65;100.00;101649.19;5050909;28;20036;-60
2023/12/07 10:45:06;;;;;;;37.13;22.30;;;;;;;0.66;100.00;101652.66;5042598;28;20508;-61
2023/12/07 10:47:35;;;;;;;38.23;21.60;;;;;;;0.70;100.00;101645.38;5051334;28;20037;-60
2023/12/07 10:50:05;;;;;;;37.00;21.53;;;;;;;0.78;100.00;101642.59;5052644;28;20219;-60
2023/12/07 10:52:34;;;;;;;42.07;24.53;;;;;;;0.87;100.00;101637.38;5063590;28;20106;-60
2023/12/07 10:55:05;;;;;;;36.67;23.17;;;;;;;0.87;100.00;101622.03;5048519;28;20029;-59